Edgar B Speer — WQZ9670 — position and weather

sailwx.info

Track history (hours):
 
Tides and Currents Weather Stations Pressure Air Temp Water Temp Dewpoint Dewpoint Depression Visibility Wind Speed Wind Dir Waves Ship Positions

Edgar B Speer

Owner: Great Lakes Fleet, Inc, DULUTH, MN. More information available from US FCC via Universal Licensing System and Coast Guard Vessel Documentation Center.

Last reported at 2017-Aug-21 15:54 UTC. Time now 2017-Aug-21 19:40 UTC.
Position N 47°20' W 090°10'.

Length 306 m; draft 7.3 m.

Type: Cargo ship. MMSI: 366971330.

Date/timePositionNaut miles runAvg speedWind from/ knotsBaromVisibWave heightAir tempDewpointWater temp
2017-Aug-21 15:54N 47°20' W 090°10'4212.2
2017-Aug-21 12:26N 47°08' W 091°10'1312.3
2017-Aug-21 11:23N 47°03' W 091°27'512.2
2017-Aug-21 11:00N 47°02' W 091°33'5 9.7
2017-Aug-21 10:30N 47°01' W 091°40'0 0.5
2017-Aug-21 10:00N 47°01' W 091°40'0 0.0
2017-Aug-21 09:30N 47°01' W 091°40'0 0.0
2017-Aug-21 09:00N 47°01' W 091°40'0 0.0
2017-Aug-21 08:30N 47°01' W 091°40'0 0.0
2017-Aug-21 08:00N 47°01' W 091°40'0 0.0
2017-Aug-21 07:30N 47°01' W 091°40'0 0.0
2017-Aug-21 06:59N 47°01' W 091°40'0 0.0
2017-Aug-21 06:30N 47°01' W 091°40'0 0.0
2017-Aug-21 06:00N 47°01' W 091°40'0 0.0
2017-Aug-21 05:30N 47°01' W 091°40'0 0.0
2017-Aug-21 05:00N 47°01' W 091°40'0 0.0
2017-Aug-21 04:30N 47°01' W 091°40'0 0.0
2017-Aug-21 04:00N 47°01' W 091°40'0 0.0
2017-Aug-21 03:30N 47°01' W 091°40'0 0.0
2017-Aug-21 00:41N 47°01' W 091°40'0 0.1
2017-Aug-20 22:53N 47°01' W 091°40'0 0.7
2017-Aug-20 22:30N 47°01' W 091°40'4 4.4
2017-Aug-20 21:37N 46°57' W 091°37'0 2.8
2017-Aug-20 21:30N 46°58' W 091°37'0 0.5
2017-Aug-20 20:59N 46°58' W 091°37'1 0.3
2017-Aug-20 19:06N 46°58' W 091°38'0 0.2
2017-Aug-20 19:00N 46°58' W 091°38'0 0.3
2017-Aug-20 18:30N 46°58' W 091°38'0 0.4
2017-Aug-20 18:00N 46°58' W 091°38'314 8.7
2017-Aug-19 06:01N 46°15' W 084°06'0 5.9
2017-Aug-19 05:58N 46°15' W 084°06'3110.3
2017-Aug-19 02:57N 45°47' W 083°45'612.5
2017-Aug-19 02:30N 45°43' W 083°40'612.3
2017-Aug-19 02:00N 45°38' W 083°35'612.4
2017-Aug-19 01:30N 45°33' W 083°30'612.5
2017-Aug-19 00:59N 45°27' W 083°25'  
2017-Aug-15 18:13N 45°23' W 083°10'1912.5
2017-Aug-15 16:41N 45°37' W 083°28'512.6
2017-Aug-15 16:18N 45°41' W 083°33'412.5
2017-Aug-15 15:59N 45°44' W 083°37'1612.1
2017-Aug-15 14:38N 45°56' W 083°53'110.4
2017-Aug-15 14:30N 45°57' W 083°54'18 9.0
2017-Aug-15 12:33N 46°12' W 084°08'0 8.3
2017-Aug-15 12:30N 46°12' W 084°08'3 6.3
2017-Aug-15 12:00N 46°15' W 084°11'4 5.4
2017-Aug-15 11:16N 46°18' W 084°13'2 6.2
2017-Aug-15 11:00N 46°20' W 084°13'4 7.6
2017-Aug-15 10:30N 46°24' W 084°14'5 8.0
2017-Aug-15 09:53N 46°28' W 084°17'28210.3
2017-Aug-14 06:25N 47°10' W 091°04'512.2
2017-Aug-14 06:00N 47°08' W 091°12'912.2
2017-Aug-14 05:17N 47°05' W 091°23'312.1
2017-Aug-14 05:00N 47°03' W 091°28'612.2
2017-Aug-14 04:30N 47°01' W 091°36'3 5.2
2017-Aug-14 04:00N 47°01' W 091°40'0 0.2
2017-Aug-14 03:30N 47°01' W 091°40'0 0.0
2017-Aug-14 02:26N 47°01' W 091°40'0 0.0
2017-Aug-14 02:00N 47°01' W 091°40'0 0.0
2017-Aug-14 01:02N 47°01' W 091°40'0 0.1
2017-Aug-14 00:59N 47°01' W 091°40'0 0.0
2017-Aug-14 00:28N 47°01' W 091°40'0 0.0
2017-Aug-13 23:50N 47°01' W 091°40'0 0.0
2017-Aug-13 23:30N 47°01' W 091°40'0 0.0
2017-Aug-13 22:58N 47°01' W 091°40'0 0.0
2017-Aug-13 22:13N 47°01' W 091°40'0 0.0
2017-Aug-13 21:53N 47°01' W 091°40'0 0.0
2017-Aug-13 21:26N 47°01' W 091°40'0 0.0
2017-Aug-13 20:59N 47°01' W 091°40'0 0.0
2017-Aug-13 20:30N 47°01' W 091°40'0 0.0
2017-Aug-13 19:59N 47°01' W 091°40'0 0.0
2017-Aug-13 19:30N 47°01' W 091°40'0 0.1
2017-Aug-13 18:52N 47°01' W 091°40'0 0.4
2017-Aug-13 18:30N 47°01' W 091°40'1 2.1
2017-Aug-13 18:00N 46°60' W 091°41'510.5
2017-Aug-13 17:30N 46°56' W 091°46'713.1
2017-Aug-13 17:00N 46°51' W 091°53'612.7
2017-Aug-13 16:30N 46°48' W 092°01'4 7.8
2017-Aug-13 16:00N 46°46' W 092°06'0 1.0
2017-Aug-13 15:30N 46°46' W 092°06'0 0.0
2017-Aug-13 15:00N 46°46' W 092°06'0 0.0
2017-Aug-13 14:30N 46°46' W 092°06'0 0.0
2017-Aug-13 14:00N 46°46' W 092°06'0 0.0
2017-Aug-13 13:30N 46°46' W 092°06'0 0.0
2017-Aug-13 13:00N 46°46' W 092°06'0 0.0
2017-Aug-13 12:30N 46°46' W 092°06'0 0.0
2017-Aug-13 12:00N 46°46' W 092°06'0 0.0
2017-Aug-13 11:30N 46°46' W 092°06'0 0.0
2017-Aug-13 10:59N 46°46' W 092°06'0 0.0
2017-Aug-13 10:30N 46°46' W 092°06'0 0.0
2017-Aug-13 10:00N 46°46' W 092°06'0 0.0
2017-Aug-13 09:30N 46°46' W 092°06'0 0.0
2017-Aug-13 09:00N 46°46' W 092°06'0 0.0
2017-Aug-13 08:30N 46°46' W 092°06'0 0.0
2017-Aug-13 08:00N 46°46' W 092°06'0 0.0
2017-Aug-13 07:30N 46°46' W 092°06'0 0.0
2017-Aug-13 06:59N 46°46' W 092°06'0 0.0
2017-Aug-13 06:30N 46°46' W 092°06'0 0.0
2017-Aug-13 06:00N 46°46' W 092°06'0 0.0
2017-Aug-13 05:30N 46°46' W 092°06'0 0.0
2017-Aug-13 05:00N 46°46' W 092°06'0 0.0
2017-Aug-13 04:30N 46°46' W 092°06'0 0.0
2017-Aug-13 04:00N 46°46' W 092°06'0 0.0
2017-Aug-13 03:30N 46°46' W 092°06'0 0.0
2017-Aug-13 03:00N 46°46' W 092°06'0 0.0
2017-Aug-13 02:30N 46°46' W 092°06'0 0.0
2017-Aug-13 02:00N 46°46' W 092°06'0 0.0
2017-Aug-13 01:30N 46°46' W 092°06'0 0.0
2017-Aug-13 01:00N 46°46' W 092°06'0 0.0
2017-Aug-13 00:30N 46°46' W 092°06'0 0.0
2017-Aug-13 00:00N 46°46' W 092°06'0 0.0
2017-Aug-12 23:30N 46°46' W 092°06'0 0.0
2017-Aug-12 23:01N 46°46' W 092°06'0 0.0
2017-Aug-12 22:30N 46°46' W 092°06'0 0.0
2017-Aug-12 22:00N 46°46' W 092°06'0 0.0
2017-Aug-12 21:31N 46°46' W 092°06'0 0.0
2017-Aug-12 21:00N 46°46' W 092°06'0 0.0
2017-Aug-12 20:30N 46°46' W 092°06'0 0.0
2017-Aug-12 20:00N 46°46' W 092°06'0 0.0
2017-Aug-12 19:30N 46°46' W 092°06'0 0.0
2017-Aug-12 19:00N 46°46' W 092°06'0 0.0
2017-Aug-12 18:30N 46°46' W 092°06'0 0.0
2017-Aug-12 18:00N 46°46' W 092°06'0 0.0
2017-Aug-12 17:30N 46°46' W 092°06'0 0.0
2017-Aug-12 17:00N 46°46' W 092°06'0 0.0
2017-Aug-12 16:30N 46°46' W 092°06'0 0.0
2017-Aug-12 16:00N 46°46' W 092°06'0 0.0
2017-Aug-12 15:30N 46°46' W 092°06'0 0.0
2017-Aug-12 15:00N 46°46' W 092°06'0 0.0
2017-Aug-12 14:30N 46°46' W 092°06'0 0.0
2017-Aug-12 14:00N 46°46' W 092°06'0 0.0
2017-Aug-12 13:30N 46°46' W 092°06'0 0.0
2017-Aug-12 13:00N 46°46' W 092°06'0 0.0
2017-Aug-12 12:30N 46°46' W 092°06'0 0.0
2017-Aug-12 12:00N 46°46' W 092°06'0 0.0
2017-Aug-12 11:30N 46°46' W 092°06'0 0.0
2017-Aug-12 11:00N 46°46' W 092°06'0 0.0
2017-Aug-12 10:30N 46°46' W 092°06'0 0.0
2017-Aug-12 10:00N 46°46' W 092°06'0 0.0
2017-Aug-12 09:30N 46°46' W 092°06'0 0.0
2017-Aug-12 09:00N 46°46' W 092°06'0 0.0
2017-Aug-12 08:30N 46°46' W 092°06'0 0.0
2017-Aug-12 08:00N 46°46' W 092°06'0 0.0
2017-Aug-12 07:30N 46°46' W 092°06'0 0.0
2017-Aug-12 07:00N 46°46' W 092°06'0 0.0
2017-Aug-12 06:30N 46°46' W 092°06'0 0.0
2017-Aug-12 06:00N 46°46' W 092°06'0 0.0
2017-Aug-12 05:31N 46°46' W 092°06'0 0.0
2017-Aug-12 05:00N 46°46' W 092°06'0 0.0
2017-Aug-12 04:30N 46°46' W 092°06'0 0.0
2017-Aug-12 04:00N 46°46' W 092°06'0 0.0
2017-Aug-12 03:30N 46°46' W 092°06'0 0.0
2017-Aug-12 03:00N 46°46' W 092°06'0 0.0
2017-Aug-12 02:30N 46°46' W 092°06'0 0.0
2017-Aug-12 02:00N 46°46' W 092°06'0 0.0
2017-Aug-12 01:30N 46°46' W 092°06'0 0.0
2017-Aug-12 01:00N 46°46' W 092°06'0 0.0
2017-Aug-12 00:30N 46°46' W 092°06'0 0.0
2017-Aug-12 00:00N 46°46' W 092°06'0 0.0
2017-Aug-11 23:30N 46°46' W 092°06'0 0.0
2017-Aug-11 23:00N 46°46' W 092°06'0 0.0
2017-Aug-11 22:30N 46°46' W 092°06'0 0.0
2017-Aug-11 22:00N 46°46' W 092°06'0 0.0
2017-Aug-11 21:30N 46°46' W 092°06'0 0.0
2017-Aug-11 21:01N 46°46' W 092°06'0 0.0
2017-Aug-11 20:31N 46°46' W 092°06'0 0.0
2017-Aug-11 20:00N 46°46' W 092°06'0 0.0
2017-Aug-11 19:31N 46°46' W 092°06'0 0.0
2017-Aug-11 19:00N 46°46' W 092°06'0 0.0
2017-Aug-11 18:30N 46°46' W 092°06'0 0.0
2017-Aug-11 18:00N 46°46' W 092°06'0 0.0
2017-Aug-11 17:30N 46°46' W 092°06'0 0.0
2017-Aug-11 17:00N 46°46' W 092°06'0 0.0
2017-Aug-11 16:31N 46°46' W 092°06'0 0.0
2017-Aug-11 16:00N 46°46' W 092°06'  
Track history (hours):
 
Tides and Currents Weather Stations Pressure Air Temp Water Temp Dewpoint Dewpoint Depression Visibility Wind Speed Wind Dir Waves Ship Positions

Edgar B Speer

Owner: Great Lakes Fleet, Inc, DULUTH, MN. More information available from US FCC via Universal Licensing System and Coast Guard Vessel Documentation Center.

Last reported at 2017-Aug-21 15:54 UTC. Time now 2017-Aug-21 19:40 UTC.
Position N 47°20' W 090°10'.

Length 306 m; draft 7.3 m.

Type: Cargo ship. MMSI: 366971330.

Date/timePositionNaut miles runAvg speedWind from/ knotsBaromVisibWave heightAir tempDewpointWater temp
2017-Aug-21 15:54N 47°20' W 090°10'4212.2
2017-Aug-21 12:26N 47°08' W 091°10'1312.3
2017-Aug-21 11:23N 47°03' W 091°27'512.2
2017-Aug-21 11:00N 47°02' W 091°33'5 9.7
2017-Aug-21 10:30N 47°01' W 091°40'0 0.5
2017-Aug-21 10:00N 47°01' W 091°40'0 0.0
2017-Aug-21 09:30N 47°01' W 091°40'0 0.0
2017-Aug-21 09:00N 47°01' W 091°40'0 0.0
2017-Aug-21 08:30N 47°01' W 091°40'0 0.0
2017-Aug-21 08:00N 47°01' W 091°40'0 0.0
2017-Aug-21 07:30N 47°01' W 091°40'0 0.0
2017-Aug-21 06:59N 47°01' W 091°40'0 0.0
2017-Aug-21 06:30N 47°01' W 091°40'0 0.0
2017-Aug-21 06:00N 47°01' W 091°40'0 0.0
2017-Aug-21 05:30N 47°01' W 091°40'0 0.0
2017-Aug-21 05:00N 47°01' W 091°40'0 0.0
2017-Aug-21 04:30N 47°01' W 091°40'0 0.0
2017-Aug-21 04:00N 47°01' W 091°40'0 0.0
2017-Aug-21 03:30N 47°01' W 091°40'0 0.0
2017-Aug-21 00:41N 47°01' W 091°40'0 0.1
2017-Aug-20 22:53N 47°01' W 091°40'0 0.7
2017-Aug-20 22:30N 47°01' W 091°40'4 4.4
2017-Aug-20 21:37N 46°57' W 091°37'0 2.8
2017-Aug-20 21:30N 46°58' W 091°37'0 0.5
2017-Aug-20 20:59N 46°58' W 091°37'1 0.3
2017-Aug-20 19:06N 46°58' W 091°38'0 0.2
2017-Aug-20 19:00N 46°58' W 091°38'0 0.3
2017-Aug-20 18:30N 46°58' W 091°38'0 0.4
2017-Aug-20 18:00N 46°58' W 091°38'314 8.7
2017-Aug-19 06:01N 46°15' W 084°06'0 5.9
2017-Aug-19 05:58N 46°15' W 084°06'3110.3
2017-Aug-19 02:57N 45°47' W 083°45'612.5
2017-Aug-19 02:30N 45°43' W 083°40'612.3
2017-Aug-19 02:00N 45°38' W 083°35'612.4
2017-Aug-19 01:30N 45°33' W 083°30'612.5
2017-Aug-19 00:59N 45°27' W 083°25'  
2017-Aug-15 18:13N 45°23' W 083°10'1912.5
2017-Aug-15 16:41N 45°37' W 083°28'512.6
2017-Aug-15 16:18N 45°41' W 083°33'412.5
2017-Aug-15 15:59N 45°44' W 083°37'1612.1
2017-Aug-15 14:38N 45°56' W 083°53'110.4
2017-Aug-15 14:30N 45°57' W 083°54'18 9.0
2017-Aug-15 12:33N 46°12' W 084°08'0 8.3
2017-Aug-15 12:30N 46°12' W 084°08'3 6.3
2017-Aug-15 12:00N 46°15' W 084°11'4 5.4
2017-Aug-15 11:16N 46°18' W 084°13'2 6.2
2017-Aug-15 11:00N 46°20' W 084°13'4 7.6
2017-Aug-15 10:30N 46°24' W 084°14'5 8.0
2017-Aug-15 09:53N 46°28' W 084°17'28210.3
2017-Aug-14 06:25N 47°10' W 091°04'512.2
2017-Aug-14 06:00N 47°08' W 091°12'912.2
2017-Aug-14 05:17N 47°05' W 091°23'312.1
2017-Aug-14 05:00N 47°03' W 091°28'612.2
2017-Aug-14 04:30N 47°01' W 091°36'3 5.2
2017-Aug-14 04:00N 47°01' W 091°40'0 0.2
2017-Aug-14 03:30N 47°01' W 091°40'0 0.0
2017-Aug-14 02:26N 47°01' W 091°40'0 0.0
2017-Aug-14 02:00N 47°01' W 091°40'0 0.0
2017-Aug-14 01:02N 47°01' W 091°40'0 0.1
2017-Aug-14 00:59N 47°01' W 091°40'0 0.0
2017-Aug-14 00:28N 47°01' W 091°40'0 0.0
2017-Aug-13 23:50N 47°01' W 091°40'0 0.0
2017-Aug-13 23:30N 47°01' W 091°40'0 0.0
2017-Aug-13 22:58N 47°01' W 091°40'0 0.0
2017-Aug-13 22:13N 47°01' W 091°40'0 0.0
2017-Aug-13 21:53N 47°01' W 091°40'0 0.0
2017-Aug-13 21:26N 47°01' W 091°40'0 0.0
2017-Aug-13 20:59N 47°01' W 091°40'0 0.0
2017-Aug-13 20:30N 47°01' W 091°40'0 0.0
2017-Aug-13 19:59N 47°01' W 091°40'0 0.0
2017-Aug-13 19:30N 47°01' W 091°40'0 0.1
2017-Aug-13 18:52N 47°01' W 091°40'0 0.4
2017-Aug-13 18:30N 47°01' W 091°40'1 2.1
2017-Aug-13 18:00N 46°60' W 091°41'510.5
2017-Aug-13 17:30N 46°56' W 091°46'713.1
2017-Aug-13 17:00N 46°51' W 091°53'612.7
2017-Aug-13 16:30N 46°48' W 092°01'4 7.8
2017-Aug-13 16:00N 46°46' W 092°06'0 1.0
2017-Aug-13 15:30N 46°46' W 092°06'0 0.0
2017-Aug-13 15:00N 46°46' W 092°06'0 0.0
2017-Aug-13 14:30N 46°46' W 092°06'0 0.0
2017-Aug-13 14:00N 46°46' W 092°06'0 0.0
2017-Aug-13 13:30N 46°46' W 092°06'0 0.0
2017-Aug-13 13:00N 46°46' W 092°06'0 0.0
2017-Aug-13 12:30N 46°46' W 092°06'0 0.0
2017-Aug-13 12:00N 46°46' W 092°06'0 0.0
2017-Aug-13 11:30N 46°46' W 092°06'0 0.0
2017-Aug-13 10:59N 46°46' W 092°06'0 0.0
2017-Aug-13 10:30N 46°46' W 092°06'0 0.0
2017-Aug-13 10:00N 46°46' W 092°06'0 0.0
2017-Aug-13 09:30N 46°46' W 092°06'0 0.0
2017-Aug-13 09:00N 46°46' W 092°06'0 0.0
2017-Aug-13 08:30N 46°46' W 092°06'0 0.0
2017-Aug-13 08:00N 46°46' W 092°06'0 0.0
2017-Aug-13 07:30N 46°46' W 092°06'0 0.0
2017-Aug-13 06:59N 46°46' W 092°06'0 0.0
2017-Aug-13 06:30N 46°46' W 092°06'0 0.0
2017-Aug-13 06:00N 46°46' W 092°06'0 0.0
2017-Aug-13 05:30N 46°46' W 092°06'0 0.0
2017-Aug-13 05:00N 46°46' W 092°06'0 0.0
2017-Aug-13 04:30N 46°46' W 092°06'0 0.0
2017-Aug-13 04:00N 46°46' W 092°06'0 0.0
2017-Aug-13 03:30N 46°46' W 092°06'0 0.0
2017-Aug-13 03:00N 46°46' W 092°06'0 0.0
2017-Aug-13 02:30N 46°46' W 092°06'0 0.0
2017-Aug-13 02:00N 46°46' W 092°06'0 0.0
2017-Aug-13 01:30N 46°46' W 092°06'0 0.0
2017-Aug-13 01:00N 46°46' W 092°06'0 0.0
2017-Aug-13 00:30N 46°46' W 092°06'0 0.0
2017-Aug-13 00:00N 46°46' W 092°06'0 0.0
2017-Aug-12 23:30N 46°46' W 092°06'0 0.0
2017-Aug-12 23:01N 46°46' W 092°06'0 0.0
2017-Aug-12 22:30N 46°46' W 092°06'0 0.0
2017-Aug-12 22:00N 46°46' W 092°06'0 0.0
2017-Aug-12 21:31N 46°46' W 092°06'0 0.0
2017-Aug-12 21:00N 46°46' W 092°06'0 0.0
2017-Aug-12 20:30N 46°46' W 092°06'0 0.0
2017-Aug-12 20:00N 46°46' W 092°06'0 0.0
2017-Aug-12 19:30N 46°46' W 092°06'0 0.0
2017-Aug-12 19:00N 46°46' W 092°06'0 0.0
2017-Aug-12 18:30N 46°46' W 092°06'0 0.0
2017-Aug-12 18:00N 46°46' W 092°06'0 0.0
2017-Aug-12 17:30N 46°46' W 092°06'0 0.0
2017-Aug-12 17:00N 46°46' W 092°06'0 0.0
2017-Aug-12 16:30N 46°46' W 092°06'0 0.0
2017-Aug-12 16:00N 46°46' W 092°06'0 0.0
2017-Aug-12 15:30N 46°46' W 092°06'0 0.0
2017-Aug-12 15:00N 46°46' W 092°06'0 0.0
2017-Aug-12 14:30N 46°46' W 092°06'0 0.0
2017-Aug-12 14:00N 46°46' W 092°06'0 0.0
2017-Aug-12 13:30N 46°46' W 092°06'0 0.0
2017-Aug-12 13:00N 46°46' W 092°06'0 0.0
2017-Aug-12 12:30N 46°46' W 092°06'0 0.0
2017-Aug-12 12:00N 46°46' W 092°06'0 0.0
2017-Aug-12 11:30N 46°46' W 092°06'0 0.0
2017-Aug-12 11:00N 46°46' W 092°06'0 0.0
2017-Aug-12 10:30N 46°46' W 092°06'0 0.0
2017-Aug-12 10:00N 46°46' W 092°06'0 0.0
2017-Aug-12 09:30N 46°46' W 092°06'0 0.0
2017-Aug-12 09:00N 46°46' W 092°06'0 0.0
2017-Aug-12 08:30N 46°46' W 092°06'0 0.0
2017-Aug-12 08:00N 46°46' W 092°06'0 0.0
2017-Aug-12 07:30N 46°46' W 092°06'0 0.0
2017-Aug-12 07:00N 46°46' W 092°06'0 0.0
2017-Aug-12 06:30N 46°46' W 092°06'0 0.0
2017-Aug-12 06:00N 46°46' W 092°06'0 0.0
2017-Aug-12 05:31N 46°46' W 092°06'0 0.0
2017-Aug-12 05:00N 46°46' W 092°06'0 0.0
2017-Aug-12 04:30N 46°46' W 092°06'0 0.0
2017-Aug-12 04:00N 46°46' W 092°06'0 0.0
2017-Aug-12 03:30N 46°46' W 092°06'0 0.0
2017-Aug-12 03:00N 46°46' W 092°06'0 0.0
2017-Aug-12 02:30N 46°46' W 092°06'0 0.0
2017-Aug-12 02:00N 46°46' W 092°06'0 0.0
2017-Aug-12 01:30N 46°46' W 092°06'0 0.0
2017-Aug-12 01:00N 46°46' W 092°06'0 0.0
2017-Aug-12 00:30N 46°46' W 092°06'0 0.0
2017-Aug-12 00:00N 46°46' W 092°06'0 0.0
2017-Aug-11 23:30N 46°46' W 092°06'0 0.0
2017-Aug-11 23:00N 46°46' W 092°06'0 0.0
2017-Aug-11 22:30N 46°46' W 092°06'0 0.0
2017-Aug-11 22:00N 46°46' W 092°06'0 0.0
2017-Aug-11 21:30N 46°46' W 092°06'0 0.0
2017-Aug-11 21:01N 46°46' W 092°06'0 0.0
2017-Aug-11 20:31N 46°46' W 092°06'0 0.0
2017-Aug-11 20:00N 46°46' W 092°06'0 0.0
2017-Aug-11 19:31N 46°46' W 092°06'0 0.0
2017-Aug-11 19:00N 46°46' W 092°06'0 0.0
2017-Aug-11 18:30N 46°46' W 092°06'0 0.0
2017-Aug-11 18:00N 46°46' W 092°06'0 0.0
2017-Aug-11 17:30N 46°46' W 092°06'0 0.0
2017-Aug-11 17:00N 46°46' W 092°06'0 0.0
2017-Aug-11 16:31N 46°46' W 092°06'0 0.0
2017-Aug-11 16:00N 46°46' W 092°06'  

Dump ship's entire track history